createdAt,value
2024-05-09T00:03:47.807Z,87.5106
2024-05-09T00:13:58.830Z,89.2239
2024-05-09T00:24:09.664Z,89.5086
2024-05-09T00:34:20.686Z,88.7082
2024-05-09T00:44:31.802Z,88.6138
2024-05-09T00:54:42.707Z,89.6314
2024-05-09T01:04:53.695Z,90.7895
2024-05-09T01:15:04.476Z,91.4731
2024-05-09T01:25:15.383Z,91.7346
2024-05-09T01:35:26.206Z,91.8111
2024-05-09T01:45:37.030Z,91.8519
2024-05-09T01:55:47.979Z,91.8932
2024-05-09T02:05:58.637Z,91.9771
2024-05-09T02:16:09.569Z,92.1027
2024-05-09T02:26:20.356Z,92.1424
2024-05-09T02:36:30.913Z,92.1438
2024-05-09T02:46:41.793Z,92.1249
2024-05-09T02:56:52.527Z,92.1002
2024-05-09T03:07:03.204Z,91.9615
2024-05-09T03:17:14.046Z,91.8126
2024-05-09T03:27:24.779Z,91.9435
2024-05-09T03:37:36.087Z,92.0633
2024-05-09T03:47:47.134Z,92.0838
2024-05-09T03:57:58.132Z,92.1835
2024-05-09T04:08:09.049Z,92.1858
2024-05-09T04:18:19.871Z,92.1939
2024-05-09T04:28:30.526Z,92.1015
2024-05-09T04:38:41.193Z,92.1961
2024-05-09T04:48:52.172Z,92.3555
2024-05-09T04:59:02.788Z,92.4987
2024-05-09T05:09:13.799Z,92.6490
2024-05-09T05:19:24.436Z,92.7721
2024-05-09T05:29:38.101Z,93.0686
2024-05-09T05:39:48.631Z,93.0578
2024-05-09T05:49:59.442Z,93.2628
2024-05-09T06:00:10.001Z,93.2277
2024-05-09T06:10:26.413Z,93.2801
2024-05-09T06:20:39.214Z,93.6231
2024-05-09T06:30:49.606Z,94.1006
2024-05-09T06:40:59.817Z,94.2067
2024-05-09T06:51:09.954Z,93.0599
2024-05-09T07:01:20.091Z,92.0456
2024-05-09T07:11:30.182Z,91.3603
2024-05-09T07:21:40.331Z,91.8857
2024-05-09T07:31:50.553Z,92.2800
2024-05-09T07:42:00.689Z,91.3617
2024-05-09T07:53:29.182Z,90.8093
2024-05-09T08:02:26.891Z,89.9130
2024-05-09T08:12:36.807Z,88.2820
2024-05-09T08:22:46.765Z,87.0070
2024-05-09T08:32:56.676Z,87.3876
2024-05-09T08:43:06.905Z,88.3229
2024-05-09T08:53:16.833Z,86.3781
2024-05-09T09:03:26.589Z,84.6806
2024-05-09T09:13:36.734Z,84.8379
2024-05-09T09:23:46.713Z,86.0504
2024-05-09T09:33:56.802Z,85.2931
2024-05-09T09:44:06.810Z,82.6043
2024-05-09T09:54:16.399Z,80.3575
2024-05-09T10:04:26.201Z,78.9314
2024-05-09T10:14:35.590Z,74.5227
2024-05-09T10:24:44.711Z,71.9779
2024-05-09T10:34:54.690Z,69.3355
2024-05-09T10:45:03.762Z,69.6490
2024-05-09T10:55:13.086Z,73.4367
2024-05-09T11:05:22.696Z,69.5642
2024-05-09T11:15:31.993Z,66.2406
2024-05-09T11:25:41.187Z,66.9866
2024-05-09T11:35:50.145Z,65.9044
2024-05-09T11:45:59.181Z,67.7154
2024-05-09T11:56:08.401Z,67.9235
2024-05-09T12:06:17.838Z,71.3718
2024-05-09T12:16:26.960Z,68.9906
2024-05-09T12:26:35.993Z,68.3401
2024-05-09T12:36:45.250Z,66.2925
2024-05-09T12:46:54.724Z,64.9607
2024-05-09T12:57:03.539Z,65.5537
2024-05-09T13:07:12.429Z,66.1827
2024-05-09T13:17:21.434Z,67.7433
2024-05-09T13:27:30.629Z,66.3834
2024-05-09T13:37:39.450Z,66.3383
2024-05-09T13:47:48.573Z,66.7128
2024-05-09T13:57:57.473Z,66.4221
2024-05-09T14:08:06.455Z,67.7706
2024-05-09T14:18:15.580Z,68.0026
2024-05-09T14:28:24.805Z,69.2766
2024-05-09T14:38:34.054Z,67.7490
2024-05-09T14:48:43.371Z,69.8241
2024-05-09T14:58:52.832Z,71.5544
2024-05-09T15:09:01.966Z,71.1240
2024-05-09T15:19:11.903Z,72.1101
2024-05-09T15:29:21.131Z,73.3799
2024-05-09T15:39:30.422Z,72.7432
2024-05-09T15:49:39.858Z,73.3299
2024-05-09T15:59:49.201Z,74.9858
2024-05-09T16:09:58.479Z,74.9407
2024-05-09T16:20:12.264Z,75.9814
2024-05-09T16:30:31.515Z,76.6060
2024-05-09T16:40:41.019Z,79.1325
2024-05-09T16:50:51.211Z,79.5995
2024-05-09T17:01:00.824Z,82.1113
2024-05-09T17:11:10.785Z,82.4595
2024-05-09T17:21:21.176Z,82.5862
2024-05-09T17:31:31.234Z,83.4012
2024-05-09T17:41:41.175Z,84.7566
2024-05-09T17:51:51.088Z,86.5610
2024-05-09T18:02:01.089Z,87.7396
2024-05-09T18:12:12.024Z,89.1524
2024-05-09T18:22:22.162Z,90.1943
2024-05-09T18:32:32.249Z,90.7137
2024-05-09T18:42:42.424Z,91.2607
2024-05-09T18:52:52.540Z,91.8092
2024-05-09T19:03:03.317Z,92.2160
2024-05-09T19:13:14.494Z,92.4505
2024-05-09T19:23:25.399Z,92.5972
2024-05-09T19:33:35.818Z,92.4912
2024-05-09T19:43:46.373Z,92.1228
2024-05-09T19:53:57.192Z,91.9680
2024-05-09T20:04:07.827Z,91.8753
2024-05-09T20:14:18.648Z,91.6647
2024-05-09T20:24:29.486Z,91.2260
2024-05-09T20:34:40.343Z,90.8659
2024-05-09T20:44:51.233Z,90.9012
2024-05-09T20:55:02.132Z,90.4127
2024-05-09T21:05:13.355Z,90.2332
2024-05-09T21:15:24.208Z,89.8478
2024-05-09T21:25:35.129Z,88.8859
2024-05-09T21:35:45.968Z,87.7409
2024-05-09T21:45:56.856Z,87.1849
2024-05-09T21:56:07.749Z,86.7121
2024-05-09T22:06:18.621Z,86.0385
2024-05-09T22:16:29.615Z,85.7568
2024-05-09T22:26:40.532Z,85.6199
2024-05-09T22:36:51.294Z,85.7644
2024-05-09T22:47:02.267Z,85.5642
2024-05-09T22:57:13.317Z,85.4433
2024-05-09T23:07:24.240Z,85.5309
2024-05-09T23:17:35.328Z,85.9680
2024-05-09T23:27:46.326Z,85.3727
2024-05-09T23:37:57.509Z,85.1296
2024-05-09T23:48:08.789Z,84.7904
2024-05-09T23:58:20.101Z,84.3950
